TUI1280 DTTJ-EDDV
Flight info
| Callsign | TUI1280 |
|---|---|
| Flight time | 2h 52m |
| Altitude | 36000 |
| Route | TRIFA1A TRIFA G362 RALAK/N0439F350 DCT DINUX/N0431F340 DCT PAN DCT MEGAN DCT RONAB DCT KONUT/N0433F360 DCT TORLI DCT ROSUV DCT ROKIB DCT GIKEB DCT EKPEB DCT BRENO DCT KONIN DCT KEMES DCT ANELA M726 LASTO/N0400F300 M852 BIRKA/N0356F240 T803 GITEX GITEX1Z |
| Aircraft | B738/M-SDE2E3FGHIRWXY/LB1 |
Departure
| Time | 2026-05-06 11:03 |
|---|---|
| Airport | Djerba Zarzis International Airport (DTTJ) |
Arrival
| Time | 2026-05-06 13:55 |
|---|---|
| Airport | Hannover Airport (EDDV) |
| Time | Latitude | Longitude | Altitude | Speed | Heading |
|---|---|---|---|---|---|
| 2026-05-06 09:47 | 33.87209 | 10.77324 | 26 ft | 0 kts | 140° |
| 2026-05-06 10:53 | 33.87210 | 10.77323 | 26 ft | 2 kts | 140° |
| 2026-05-06 10:53 | 33.87229 | 10.77304 | 26 ft | 3 kts | 140° |
| 2026-05-06 10:53 | 33.87245 | 10.77285 | 26 ft | 4 kts | 119° |
| 2026-05-06 10:54 | 33.87250 | 10.77257 | 26 ft | 4 kts | 68° |
| 2026-05-06 10:54 | 33.87235 | 10.77231 | 26 ft | 4 kts | 43° |
| 2026-05-06 10:54 | 33.87224 | 10.77218 | 26 ft | 0 kts | 45° |
| 2026-05-06 10:58 | 33.87235 | 10.77230 | 26 ft | 6 kts | 38° |
| 2026-05-06 10:58 | 33.87273 | 10.77254 | 26 ft | 6 kts | 25° |
| 2026-05-06 10:58 | 33.87308 | 10.77272 | 26 ft | 2 kts | 20° |
| 2026-05-06 10:59 | 33.87344 | 10.77273 | 26 ft | 9 kts | 345° |
| 2026-05-06 10:59 | 33.87364 | 10.77202 | 30 ft | 14 kts | 269° |
| 2026-05-06 10:59 | 33.87360 | 10.77052 | 27 ft | 19 kts | 268° |
| 2026-05-06 10:59 | 33.87356 | 10.76881 | 24 ft | 22 kts | 268° |
| 2026-05-06 11:00 | 33.87351 | 10.76687 | 20 ft | 24 kts | 268° |
| 2026-05-06 11:00 | 33.87346 | 10.76485 | 22 ft | 23 kts | 268° |
| 2026-05-06 11:00 | 33.87341 | 10.76292 | 19 ft | 23 kts | 268° |
| 2026-05-06 11:00 | 33.87339 | 10.76123 | 16 ft | 13 kts | 279° |
| 2026-05-06 11:01 | 33.87388 | 10.76056 | 17 ft | 9 kts | 346° |
| 2026-05-06 11:01 | 33.87428 | 10.76052 | 18 ft | 5 kts | 357° |
| 2026-05-06 11:01 | 33.87459 | 10.76052 | 21 ft | 7 kts | 0° |
| 2026-05-06 11:01 | 33.87499 | 10.76068 | 23 ft | 5 kts | 49° |
| 2026-05-06 11:02 | 33.87507 | 10.76148 | 22 ft | 19 kts | 88° |
| 2026-05-06 11:02 | 33.87514 | 10.76512 | 20 ft | 70 kts | 88° |
| 2026-05-06 11:02 | 33.87535 | 10.77292 | 20 ft | 114 kts | 88° |
| 2026-05-06 11:02 | 33.87561 | 10.78386 | 17 ft | 147 kts | 88° |
| 2026-05-06 11:03 | 33.87607 | 10.79701 | 140 ft | 164 kts | 88° |
| 2026-05-06 11:03 | 33.87680 | 10.81079 | 630 ft | 160 kts | 86° |
| 2026-05-06 11:03 | 33.87952 | 10.82389 | 988 ft | 173 kts | 61° |
| 2026-05-06 11:03 | 33.88966 | 10.83262 | 1166 ft | 194 kts | 13° |
| 2026-05-06 11:04 | 33.90321 | 10.83052 | 1575 ft | 199 kts | 342° |
| 2026-05-06 11:04 | 33.91656 | 10.82543 | 2130 ft | 199 kts | 351° |
| 2026-05-06 11:04 | 33.93050 | 10.82741 | 2476 ft | 211 kts | 32° |
| 2026-05-06 11:04 | 33.94213 | 10.83806 | 3044 ft | 213 kts | 46° |
| 2026-05-06 11:05 | 33.95275 | 10.85120 | 3518 ft | 225 kts | 50° |
| 2026-05-06 11:05 | 33.96370 | 10.86507 | 4073 ft | 234 kts | 48° |
| 2026-05-06 11:05 | 33.97544 | 10.87915 | 4519 ft | 248 kts | 46° |
| 2026-05-06 11:05 | 33.98801 | 10.89372 | 5103 ft | 255 kts | 45° |
| 2026-05-06 11:06 | 33.99683 | 10.90368 | 5438 ft | 262 kts | 45° |
| 2026-05-06 11:06 | 34.01040 | 10.91890 | 6069 ft | 267 kts | 45° |
| 2026-05-06 11:06 | 34.02424 | 10.93451 | 6699 ft | 281 kts | 45° |
| 2026-05-06 11:06 | 34.03870 | 10.95096 | 7361 ft | 290 kts | 45° |
| 2026-05-06 11:07 | 34.05351 | 10.96782 | 8123 ft | 295 kts | 45° |
| 2026-05-06 11:07 | 34.06852 | 10.98492 | 8888 ft | 299 kts | 44° |
| 2026-05-06 11:07 | 34.08373 | 11.00225 | 9645 ft | 302 kts | 44° |
| 2026-05-06 11:07 | 34.09925 | 11.01991 | 10193 ft | 315 kts | 44° |
| 2026-05-06 11:08 | 34.11559 | 11.03846 | 10587 ft | 331 kts | 44° |
| 2026-05-06 11:08 | 34.13277 | 11.05804 | 11031 ft | 345 kts | 44° |
| 2026-05-06 11:08 | 34.15036 | 11.07808 | 11702 ft | 350 kts | 44° |
| 2026-05-06 11:08 | 34.16814 | 11.09840 | 12423 ft | 354 kts | 43° |
| 2026-05-06 11:09 | 34.18617 | 11.11897 | 13158 ft | 358 kts | 43° |
| 2026-05-06 11:09 | 34.20443 | 11.13965 | 13890 ft | 362 kts | 43° |
| 2026-05-06 11:09 | 34.22298 | 11.16049 | 14647 ft | 365 kts | 43° |
| 2026-05-06 11:09 | 34.24170 | 11.18150 | 15390 ft | 368 kts | 43° |
| 2026-05-06 11:10 | 34.26051 | 11.20272 | 16128 ft | 372 kts | 43° |
| 2026-05-06 11:10 | 34.27946 | 11.22427 | 16841 ft | 376 kts | 43° |
| 2026-05-06 11:10 | 34.29836 | 11.24581 | 17532 ft | 380 kts | 43° |
| 2026-05-06 11:10 | 34.31793 | 11.26811 | 18218 ft | 383 kts | 43° |
| 2026-05-06 11:11 | 34.33745 | 11.29033 | 18884 ft | 387 kts | 43° |
| 2026-05-06 11:11 | 34.35719 | 11.31277 | 19534 ft | 392 kts | 43° |
| 2026-05-06 11:11 | 34.37691 | 11.33517 | 20135 ft | 396 kts | 42° |
| 2026-05-06 11:11 | 34.39743 | 11.35826 | 20745 ft | 400 kts | 42° |
| 2026-05-06 11:12 | 34.41796 | 11.38118 | 21332 ft | 403 kts | 41° |
| 2026-05-06 11:12 | 34.43871 | 11.40436 | 21899 ft | 407 kts | 42° |
| 2026-05-06 11:12 | 34.45957 | 11.42776 | 22441 ft | 411 kts | 42° |
| 2026-05-06 11:12 | 34.48059 | 11.45145 | 22970 ft | 415 kts | 42° |
| 2026-05-06 11:13 | 34.50222 | 11.47473 | 23467 ft | 417 kts | 35° |
| 2026-05-06 11:13 | 34.52710 | 11.49289 | 23985 ft | 418 kts | 22° |
| 2026-05-06 11:13 | 34.55459 | 11.50434 | 24480 ft | 418 kts | 10° |
| 2026-05-06 11:13 | 34.58297 | 11.50970 | 24958 ft | 419 kts | 5° |
| 2026-05-06 11:14 | 34.61201 | 11.51432 | 25436 ft | 422 kts | 5° |
| 2026-05-06 11:14 | 34.64113 | 11.51877 | 25905 ft | 424 kts | 5° |
| 2026-05-06 11:14 | 34.67049 | 11.52331 | 26360 ft | 426 kts | 5° |
| 2026-05-06 11:14 | 34.69997 | 11.52800 | 26800 ft | 428 kts | 5° |
| 2026-05-06 11:15 | 34.72953 | 11.53279 | 27218 ft | 430 kts | 5° |
| 2026-05-06 11:15 | 34.75928 | 11.53761 | 27621 ft | 432 kts | 5° |
| 2026-05-06 11:15 | 34.78910 | 11.54240 | 28021 ft | 433 kts | 5° |
| 2026-05-06 11:15 | 34.81906 | 11.54717 | 28394 ft | 435 kts | 5° |
| 2026-05-06 11:16 | 34.84916 | 11.55195 | 28709 ft | 438 kts | 5° |
| 2026-05-06 11:16 | 34.87938 | 11.55680 | 29095 ft | 438 kts | 5° |
| 2026-05-06 11:16 | 34.90964 | 11.56168 | 29531 ft | 437 kts | 5° |
| 2026-05-06 11:16 | 34.93980 | 11.56655 | 29980 ft | 436 kts | 4° |
| 2026-05-06 11:17 | 34.96983 | 11.57138 | 30414 ft | 435 kts | 4° |
| 2026-05-06 11:17 | 34.99983 | 11.57619 | 30826 ft | 434 kts | 4° |
| 2026-05-06 11:17 | 35.02972 | 11.58100 | 31220 ft | 433 kts | 4° |
| 2026-05-06 11:17 | 35.05922 | 11.58575 | 31601 ft | 432 kts | 4° |
| 2026-05-06 11:18 | 35.08904 | 11.59056 | 31968 ft | 432 kts | 4° |
| 2026-05-06 11:18 | 35.11882 | 11.59537 | 32334 ft | 431 kts | 4° |
| 2026-05-06 11:18 | 35.14898 | 11.60024 | 32700 ft | 430 kts | 4° |
| 2026-05-06 11:18 | 35.17826 | 11.60497 | 33044 ft | 430 kts | 4° |
| 2026-05-06 11:19 | 35.20791 | 11.60976 | 33376 ft | 430 kts | 4° |
| 2026-05-06 11:19 | 35.23754 | 11.61455 | 33706 ft | 430 kts | 4° |
| 2026-05-06 11:19 | 35.26719 | 11.61935 | 33905 ft | 433 kts | 4° |
| 2026-05-06 11:20 | 35.32734 | 11.62910 | 33914 ft | 434 kts | 4° |
| 2026-05-06 11:20 | 35.38669 | 11.63877 | 33918 ft | 429 kts | 4° |
| 2026-05-06 11:21 | 35.44592 | 11.64838 | 33918 ft | 428 kts | 4° |
| 2026-05-06 11:21 | 35.50500 | 11.65799 | 33919 ft | 428 kts | 4° |
| 2026-05-06 11:22 | 35.56415 | 11.66763 | 33925 ft | 429 kts | 4° |
| 2026-05-06 11:22 | 35.62327 | 11.67730 | 33933 ft | 428 kts | 5° |
| 2026-05-06 11:23 | 35.68239 | 11.68697 | 33935 ft | 428 kts | 5° |
| 2026-05-06 11:23 | 35.74150 | 11.69665 | 33937 ft | 428 kts | 5° |
| 2026-05-06 11:24 | 35.80061 | 11.70635 | 33937 ft | 429 kts | 5° |
| 2026-05-06 11:24 | 35.85926 | 11.71599 | 33955 ft | 428 kts | 5° |
| 2026-05-06 11:25 | 35.91844 | 11.72572 | 33953 ft | 429 kts | 5° |
| 2026-05-06 11:25 | 35.97750 | 11.73546 | 33960 ft | 428 kts | 5° |
| 2026-05-06 11:26 | 36.03666 | 11.74522 | 33964 ft | 429 kts | 5° |
| 2026-05-06 11:26 | 36.09590 | 11.75501 | 33964 ft | 429 kts | 5° |
| 2026-05-06 11:27 | 36.15503 | 11.76480 | 33969 ft | 429 kts | 5° |
| 2026-05-06 11:27 | 36.21379 | 11.77456 | 33974 ft | 429 kts | 5° |
| 2026-05-06 11:28 | 36.27289 | 11.78435 | 33974 ft | 428 kts | 5° |
| 2026-05-06 11:28 | 36.33199 | 11.79419 | 33980 ft | 428 kts | 5° |
| 2026-05-06 11:29 | 36.39108 | 11.80403 | 33983 ft | 429 kts | 5° |
| 2026-05-06 11:29 | 36.45024 | 11.81390 | 33986 ft | 429 kts | 5° |
| 2026-05-06 11:30 | 36.50904 | 11.82665 | 34005 ft | 431 kts | 16° |
| 2026-05-06 11:30 | 36.56568 | 11.85189 | 33998 ft | 433 kts | 18° |
| 2026-05-06 11:31 | 36.62227 | 11.87789 | 33998 ft | 433 kts | 18° |
| 2026-05-06 11:31 | 36.67877 | 11.90369 | 34003 ft | 433 kts | 18° |
| 2026-05-06 11:32 | 36.73537 | 11.92948 | 34004 ft | 433 kts | 18° |
| 2026-05-06 11:32 | 36.79196 | 11.95539 | 34009 ft | 433 kts | 17° |
| 2026-05-06 11:32 | 36.82095 | 11.96457 | 34023 ft | 429 kts | 5° |
| 2026-05-06 11:33 | 36.85060 | 11.96729 | 34020 ft | 427 kts | 0° |
| 2026-05-06 11:33 | 36.91013 | 11.96987 | 34008 ft | 427 kts | 359° |
| 2026-05-06 11:34 | 36.96960 | 11.97213 | 34003 ft | 427 kts | 359° |
| 2026-05-06 11:34 | 37.02903 | 11.97469 | 34001 ft | 428 kts | 359° |
| 2026-05-06 11:35 | 37.08858 | 11.97720 | 34000 ft | 427 kts | 359° |
| 2026-05-06 11:35 | 37.14812 | 11.97966 | 34003 ft | 428 kts | 359° |
| 2026-05-06 11:36 | 37.20770 | 11.98217 | 33989 ft | 428 kts | 359° |
| 2026-05-06 11:36 | 37.26716 | 11.98467 | 33986 ft | 428 kts | 359° |
| 2026-05-06 11:37 | 37.32664 | 11.98718 | 33985 ft | 427 kts | 359° |
| 2026-05-06 11:37 | 37.38610 | 11.98968 | 33985 ft | 428 kts | 359° |
| 2026-05-06 11:38 | 37.44558 | 11.99220 | 33984 ft | 427 kts | 359° |
| 2026-05-06 11:38 | 37.50493 | 11.99469 | 33991 ft | 427 kts | 359° |
| 2026-05-06 11:39 | 37.56436 | 11.99633 | 33993 ft | 427 kts | 356° |
| 2026-05-06 11:39 | 37.62319 | 11.99267 | 33996 ft | 425 kts | 354° |
| 2026-05-06 11:40 | 37.68235 | 11.98930 | 33998 ft | 426 kts | 356° |
| 2026-05-06 11:40 | 37.74173 | 11.98736 | 34000 ft | 426 kts | 356° |
| 2026-05-06 11:41 | 37.80087 | 11.98469 | 34003 ft | 425 kts | 355° |
| 2026-05-06 11:41 | 37.86016 | 11.98193 | 34004 ft | 426 kts | 355° |
| 2026-05-06 11:42 | 37.91944 | 11.97942 | 34005 ft | 426 kts | 355° |
| 2026-05-06 11:42 | 37.97869 | 11.97680 | 34005 ft | 425 kts | 355° |
| 2026-05-06 11:43 | 38.03796 | 11.97416 | 34004 ft | 426 kts | 355° |
| 2026-05-06 11:43 | 38.09718 | 11.97155 | 34005 ft | 426 kts | 355° |
| 2026-05-06 11:44 | 38.18601 | 11.96761 | 34004 ft | 426 kts | 355° |
| 2026-05-06 11:44 | 38.24525 | 11.96499 | 34003 ft | 426 kts | 355° |
| 2026-05-06 11:45 | 38.30418 | 11.96237 | 34000 ft | 426 kts | 355° |
| 2026-05-06 11:45 | 38.36351 | 11.95972 | 34003 ft | 426 kts | 355° |
| 2026-05-06 11:46 | 38.42281 | 11.95707 | 34004 ft | 427 kts | 355° |
| 2026-05-06 11:46 | 38.48219 | 11.95442 | 34003 ft | 427 kts | 355° |
| 2026-05-06 11:47 | 38.53196 | 11.95219 | 34003 ft | 428 kts | 355° |
| 2026-05-06 11:47 | 38.59159 | 11.94952 | 34003 ft | 428 kts | 355° |
| 2026-05-06 11:48 | 38.65071 | 11.94686 | 34003 ft | 428 kts | 355° |
| 2026-05-06 11:48 | 38.71040 | 11.94418 | 34002 ft | 429 kts | 355° |
| 2026-05-06 11:49 | 38.77013 | 11.94148 | 34002 ft | 429 kts | 355° |
| 2026-05-06 11:49 | 38.82999 | 11.93878 | 34001 ft | 430 kts | 355° |
| 2026-05-06 11:50 | 38.88978 | 11.93609 | 34004 ft | 430 kts | 355° |
| 2026-05-06 11:50 | 38.94969 | 11.93337 | 34004 ft | 431 kts | 355° |
| 2026-05-06 11:51 | 39.00970 | 11.93065 | 34004 ft | 432 kts | 355° |
| 2026-05-06 11:51 | 39.06942 | 11.92793 | 34004 ft | 432 kts | 355° |
| 2026-05-06 11:52 | 39.12966 | 11.92518 | 34003 ft | 432 kts | 355° |
| 2026-05-06 11:52 | 39.18986 | 11.92245 | 34003 ft | 433 kts | 355° |
| 2026-05-06 11:53 | 39.25010 | 11.91970 | 34001 ft | 433 kts | 355° |
| 2026-05-06 11:53 | 39.31031 | 11.91693 | 34004 ft | 433 kts | 355° |
| 2026-05-06 11:54 | 39.37070 | 11.91417 | 34005 ft | 434 kts | 355° |
| 2026-05-06 11:54 | 39.43105 | 11.91140 | 34001 ft | 434 kts | 355° |
| 2026-05-06 11:55 | 39.49141 | 11.90862 | 34004 ft | 434 kts | 355° |
| 2026-05-06 11:55 | 39.55186 | 11.90583 | 34003 ft | 435 kts | 355° |
| 2026-05-06 11:56 | 39.61238 | 11.90304 | 34004 ft | 435 kts | 355° |
| 2026-05-06 11:56 | 39.67279 | 11.90025 | 34004 ft | 434 kts | 355° |
| 2026-05-06 11:57 | 39.73323 | 11.89746 | 34007 ft | 435 kts | 355° |
| 2026-05-06 11:57 | 39.79373 | 11.89464 | 34010 ft | 435 kts | 355° |
| 2026-05-06 11:58 | 39.85425 | 11.89184 | 34011 ft | 435 kts | 355° |
| 2026-05-06 11:58 | 39.91485 | 11.89516 | 34018 ft | 436 kts | 1° |
| 2026-05-06 11:59 | 39.97550 | 11.90020 | 34015 ft | 437 kts | 1° |
| 2026-05-06 11:59 | 40.03615 | 11.90552 | 34016 ft | 436 kts | 2° |
| 2026-05-06 12:00 | 40.09676 | 11.91081 | 34017 ft | 437 kts | 1° |
| 2026-05-06 12:00 | 40.15737 | 11.91604 | 34018 ft | 436 kts | 1° |
| 2026-05-06 12:01 | 40.21794 | 11.92133 | 34025 ft | 437 kts | 1° |
| 2026-05-06 12:01 | 40.27862 | 11.92665 | 34024 ft | 437 kts | 1° |
| 2026-05-06 12:02 | 40.33894 | 11.93192 | 34025 ft | 437 kts | 1° |
| 2026-05-06 12:02 | 40.39976 | 11.93725 | 34021 ft | 437 kts | 1° |
| 2026-05-06 12:03 | 40.46049 | 11.94258 | 34017 ft | 437 kts | 1° |
| 2026-05-06 12:03 | 40.52114 | 11.94793 | 34024 ft | 437 kts | 1° |
| 2026-05-06 12:04 | 40.58189 | 11.95327 | 34015 ft | 438 kts | 1° |
| 2026-05-06 12:04 | 40.64270 | 11.95864 | 34020 ft | 437 kts | 1° |
| 2026-05-06 12:05 | 40.70354 | 11.96402 | 34024 ft | 438 kts | 1° |
| 2026-05-06 12:05 | 40.76428 | 11.96942 | 34022 ft | 438 kts | 1° |
| 2026-05-06 12:06 | 40.82518 | 11.97480 | 34018 ft | 438 kts | 1° |
| 2026-05-06 12:06 | 40.88608 | 11.98022 | 34025 ft | 438 kts | 1° |
| 2026-05-06 12:07 | 40.94695 | 11.98566 | 34021 ft | 439 kts | 1° |
| 2026-05-06 12:07 | 41.00776 | 11.99106 | 34019 ft | 442 kts | 1° |
| 2026-05-06 12:08 | 41.06924 | 11.99658 | 34023 ft | 443 kts | 1° |
| 2026-05-06 12:08 | 41.13125 | 12.00212 | 34236 ft | 450 kts | 1° |
| 2026-05-06 12:09 | 41.16255 | 12.00494 | 34532 ft | 450 kts | 1° |
| 2026-05-06 12:09 | 41.19383 | 12.00775 | 34843 ft | 449 kts | 1° |
| 2026-05-06 12:09 | 41.22502 | 12.01056 | 35141 ft | 449 kts | 1° |
| 2026-05-06 12:09 | 41.25618 | 12.01337 | 35441 ft | 448 kts | 1° |
| 2026-05-06 12:10 | 41.28729 | 12.01617 | 35732 ft | 448 kts | 1° |
| 2026-05-06 12:10 | 41.31830 | 12.01821 | 36008 ft | 446 kts | 358° |
| 2026-05-06 12:10 | 41.38088 | 12.01750 | 36026 ft | 450 kts | 355° |
| 2026-05-06 12:11 | 41.44305 | 12.01690 | 36029 ft | 444 kts | 357° |
| 2026-05-06 12:11 | 41.50493 | 12.01800 | 36031 ft | 445 kts | 357° |
| 2026-05-06 12:12 | 41.56642 | 12.01827 | 36031 ft | 445 kts | 356° |
| 2026-05-06 12:12 | 41.62834 | 12.01858 | 36031 ft | 446 kts | 358° |
| 2026-05-06 12:13 | 41.69041 | 12.02029 | 36031 ft | 446 kts | 358° |
| 2026-05-06 12:13 | 41.75237 | 12.02174 | 36030 ft | 445 kts | 357° |
| 2026-05-06 12:14 | 41.81471 | 12.02285 | 36033 ft | 446 kts | 358° |
| 2026-05-06 12:14 | 41.87683 | 12.02423 | 36033 ft | 446 kts | 358° |
| 2026-05-06 12:15 | 41.93879 | 12.02557 | 36031 ft | 445 kts | 358° |
| 2026-05-06 12:15 | 42.00056 | 12.02685 | 36030 ft | 446 kts | 358° |
| 2026-05-06 12:16 | 42.06254 | 12.02819 | 36028 ft | 446 kts | 358° |
| 2026-05-06 12:16 | 42.12458 | 12.02950 | 36024 ft | 446 kts | 358° |
| 2026-05-06 12:17 | 42.18670 | 12.03083 | 36024 ft | 446 kts | 358° |
| 2026-05-06 12:17 | 42.24884 | 12.03217 | 36019 ft | 446 kts | 358° |
| 2026-05-06 12:18 | 42.31077 | 12.03349 | 36021 ft | 445 kts | 358° |
| 2026-05-06 12:18 | 42.37281 | 12.03481 | 36014 ft | 445 kts | 358° |
| 2026-05-06 12:19 | 42.43486 | 12.03615 | 36012 ft | 446 kts | 358° |
| 2026-05-06 12:19 | 42.49694 | 12.03749 | 36010 ft | 446 kts | 358° |
| 2026-05-06 12:20 | 42.55902 | 12.03883 | 36007 ft | 447 kts | 358° |
| 2026-05-06 12:20 | 42.62121 | 12.04018 | 36015 ft | 447 kts | 358° |
| 2026-05-06 12:21 | 42.68304 | 12.04154 | 36005 ft | 447 kts | 358° |
| 2026-05-06 12:21 | 42.74528 | 12.04287 | 35994 ft | 447 kts | 358° |
| 2026-05-06 12:22 | 42.80756 | 12.04423 | 35995 ft | 447 kts | 358° |
| 2026-05-06 12:22 | 42.86997 | 12.04560 | 35992 ft | 449 kts | 358° |
| 2026-05-06 12:23 | 42.93250 | 12.04697 | 35996 ft | 449 kts | 358° |
| 2026-05-06 12:23 | 42.99493 | 12.04833 | 35985 ft | 448 kts | 358° |
| 2026-05-06 12:24 | 43.05747 | 12.04970 | 35979 ft | 449 kts | 358° |
| 2026-05-06 12:24 | 43.11997 | 12.05108 | 35972 ft | 450 kts | 358° |
| 2026-05-06 12:25 | 43.18227 | 12.05247 | 35968 ft | 451 kts | 358° |
| 2026-05-06 12:25 | 43.24499 | 12.05385 | 35965 ft | 450 kts | 358° |
| 2026-05-06 12:26 | 43.30770 | 12.05523 | 35982 ft | 452 kts | 358° |
| 2026-05-06 12:26 | 43.37069 | 12.05663 | 35965 ft | 452 kts | 358° |
| 2026-05-06 12:27 | 43.42342 | 12.05780 | 35965 ft | 452 kts | 358° |
| 2026-05-06 12:27 | 43.48635 | 12.05921 | 35963 ft | 453 kts | 358° |
| 2026-05-06 12:28 | 43.54945 | 12.06061 | 35951 ft | 453 kts | 358° |
| 2026-05-06 12:28 | 43.61247 | 12.06203 | 35951 ft | 453 kts | 358° |
| 2026-05-06 12:29 | 43.67559 | 12.06337 | 35951 ft | 453 kts | 356° |
| 2026-05-06 12:29 | 43.73798 | 12.05509 | 35955 ft | 450 kts | 351° |
| 2026-05-06 12:30 | 43.79950 | 12.04514 | 35954 ft | 447 kts | 350° |
| 2026-05-06 12:30 | 43.86165 | 12.03515 | 35929 ft | 446 kts | 351° |
| 2026-05-06 12:31 | 43.92289 | 12.02547 | 35936 ft | 446 kts | 351° |
| 2026-05-06 12:31 | 43.98454 | 12.01557 | 35929 ft | 446 kts | 351° |
| 2026-05-06 12:32 | 44.04625 | 12.00567 | 35925 ft | 446 kts | 351° |
| 2026-05-06 12:32 | 44.10786 | 11.99578 | 35925 ft | 446 kts | 351° |
| 2026-05-06 12:33 | 44.16964 | 11.98583 | 35925 ft | 446 kts | 351° |
| 2026-05-06 12:33 | 44.23087 | 11.97596 | 35922 ft | 445 kts | 351° |
| 2026-05-06 12:34 | 44.29248 | 11.96598 | 35922 ft | 445 kts | 351° |
| 2026-05-06 12:34 | 44.35415 | 11.95599 | 35923 ft | 446 kts | 351° |
| 2026-05-06 12:35 | 44.41573 | 11.94600 | 35917 ft | 446 kts | 351° |
| 2026-05-06 12:35 | 44.47729 | 11.93598 | 35913 ft | 445 kts | 351° |
| 2026-05-06 12:36 | 44.53887 | 11.92593 | 35923 ft | 445 kts | 351° |
| 2026-05-06 12:36 | 44.60043 | 11.91585 | 35923 ft | 446 kts | 351° |
| 2026-05-06 12:37 | 44.66212 | 11.90577 | 35909 ft | 445 kts | 351° |
| 2026-05-06 12:37 | 44.72326 | 11.89573 | 35904 ft | 445 kts | 350° |
| 2026-05-06 12:38 | 44.78478 | 11.88561 | 35902 ft | 445 kts | 350° |
| 2026-05-06 12:38 | 44.84638 | 11.87546 | 35908 ft | 445 kts | 350° |
| 2026-05-06 12:39 | 44.90786 | 11.86531 | 35910 ft | 445 kts | 350° |
| 2026-05-06 12:39 | 44.96940 | 11.85513 | 35912 ft | 446 kts | 350° |
| 2026-05-06 12:40 | 45.03103 | 11.84489 | 35917 ft | 446 kts | 350° |
| 2026-05-06 12:40 | 45.09280 | 11.83462 | 35919 ft | 447 kts | 350° |
| 2026-05-06 12:41 | 45.15458 | 11.82434 | 35920 ft | 447 kts | 350° |
| 2026-05-06 12:41 | 45.21599 | 11.81406 | 35920 ft | 447 kts | 350° |
| 2026-05-06 12:42 | 45.27782 | 11.80373 | 35920 ft | 446 kts | 350° |
| 2026-05-06 12:42 | 45.33942 | 11.79339 | 35920 ft | 446 kts | 350° |
| 2026-05-06 12:43 | 45.40109 | 11.78303 | 35925 ft | 446 kts | 350° |
| 2026-05-06 12:43 | 45.46271 | 11.77265 | 35927 ft | 446 kts | 350° |
| 2026-05-06 12:44 | 45.52445 | 11.76223 | 35929 ft | 446 kts | 350° |
| 2026-05-06 12:44 | 45.58616 | 11.75179 | 35933 ft | 446 kts | 350° |
| 2026-05-06 12:45 | 45.64780 | 11.74134 | 35937 ft | 446 kts | 350° |
| 2026-05-06 12:46 | 45.74018 | 11.72563 | 35934 ft | 446 kts | 350° |
| 2026-05-06 12:46 | 45.80178 | 11.71513 | 35943 ft | 446 kts | 350° |
| 2026-05-06 12:47 | 45.86339 | 11.70459 | 35970 ft | 446 kts | 350° |
| 2026-05-06 12:47 | 45.92500 | 11.69405 | 35962 ft | 445 kts | 350° |
| 2026-05-06 12:48 | 45.98588 | 11.67971 | 35959 ft | 441 kts | 344° |
| 2026-05-06 12:48 | 46.04572 | 11.65991 | 35957 ft | 442 kts | 344° |
| 2026-05-06 12:49 | 46.10613 | 11.64264 | 35981 ft | 443 kts | 346° |
| 2026-05-06 12:49 | 46.16674 | 11.62573 | 35992 ft | 444 kts | 345° |
| 2026-05-06 12:50 | 46.22709 | 11.60784 | 35973 ft | 442 kts | 345° |
| 2026-05-06 12:50 | 46.28737 | 11.59027 | 35970 ft | 442 kts | 345° |
| 2026-05-06 12:51 | 46.34787 | 11.57272 | 35950 ft | 443 kts | 345° |
| 2026-05-06 12:51 | 46.40790 | 11.55509 | 35938 ft | 443 kts | 345° |
| 2026-05-06 12:52 | 46.46848 | 11.53733 | 35930 ft | 444 kts | 345° |
| 2026-05-06 12:52 | 46.52909 | 11.51954 | 35929 ft | 444 kts | 345° |
| 2026-05-06 12:53 | 46.58974 | 11.50165 | 35887 ft | 444 kts | 345° |
| 2026-05-06 12:53 | 46.65015 | 11.48384 | 35896 ft | 443 kts | 345° |
| 2026-05-06 12:54 | 46.71074 | 11.46575 | 35915 ft | 446 kts | 344° |
| 2026-05-06 12:54 | 46.77133 | 11.44560 | 35906 ft | 447 kts | 343° |
| 2026-05-06 12:55 | 46.83181 | 11.42531 | 35892 ft | 445 kts | 344° |
| 2026-05-06 12:55 | 46.89227 | 11.40571 | 35882 ft | 445 kts | 343° |
| 2026-05-06 12:56 | 46.95224 | 11.38590 | 35850 ft | 444 kts | 343° |
| 2026-05-06 12:56 | 47.01394 | 11.37622 | 35849 ft | 449 kts | 356° |
| 2026-05-06 12:57 | 47.07659 | 11.37562 | 35824 ft | 451 kts | 356° |
| 2026-05-06 12:57 | 47.13932 | 11.37522 | 35802 ft | 450 kts | 356° |
| 2026-05-06 12:58 | 47.20187 | 11.37450 | 35790 ft | 449 kts | 356° |
| 2026-05-06 12:58 | 47.26452 | 11.37387 | 35787 ft | 450 kts | 356° |
| 2026-05-06 12:59 | 47.32716 | 11.37330 | 35800 ft | 451 kts | 356° |
| 2026-05-06 12:59 | 47.38997 | 11.37267 | 35812 ft | 451 kts | 356° |
| 2026-05-06 13:00 | 47.45276 | 11.37206 | 35801 ft | 450 kts | 356° |
| 2026-05-06 13:00 | 47.51532 | 11.37144 | 35792 ft | 449 kts | 356° |
| 2026-05-06 13:01 | 47.57806 | 11.37081 | 35803 ft | 450 kts | 356° |
| 2026-05-06 13:01 | 47.64067 | 11.37019 | 35812 ft | 451 kts | 356° |
| 2026-05-06 13:02 | 47.70347 | 11.36957 | 35804 ft | 451 kts | 356° |
| 2026-05-06 13:02 | 47.76620 | 11.36895 | 35802 ft | 451 kts | 356° |
| 2026-05-06 13:03 | 47.82907 | 11.36832 | 35798 ft | 452 kts | 356° |
| 2026-05-06 13:03 | 47.89181 | 11.36651 | 35801 ft | 450 kts | 354° |
| 2026-05-06 13:04 | 47.95431 | 11.35993 | 35798 ft | 450 kts | 352° |
| 2026-05-06 13:04 | 48.01639 | 11.35438 | 35791 ft | 450 kts | 354° |
| 2026-05-06 13:05 | 48.07903 | 11.34986 | 35794 ft | 450 kts | 354° |
| 2026-05-06 13:05 | 48.14161 | 11.34450 | 35787 ft | 450 kts | 353° |
| 2026-05-06 13:06 | 48.20422 | 11.33917 | 35788 ft | 450 kts | 354° |
| 2026-05-06 13:06 | 48.26683 | 11.33406 | 35790 ft | 450 kts | 354° |
| 2026-05-06 13:07 | 48.32938 | 11.32882 | 35791 ft | 450 kts | 353° |
| 2026-05-06 13:07 | 48.38133 | 11.32444 | 35793 ft | 450 kts | 354° |
| 2026-05-06 13:08 | 48.44395 | 11.31920 | 35793 ft | 450 kts | 354° |
| 2026-05-06 13:08 | 48.50656 | 11.31394 | 35795 ft | 450 kts | 354° |
| 2026-05-06 13:09 | 48.56904 | 11.30867 | 35792 ft | 450 kts | 354° |
| 2026-05-06 13:09 | 48.63151 | 11.30338 | 35790 ft | 450 kts | 354° |
| 2026-05-06 13:10 | 48.69405 | 11.29807 | 35795 ft | 450 kts | 354° |
| 2026-05-06 13:10 | 48.75675 | 11.29274 | 35790 ft | 451 kts | 354° |
| 2026-05-06 13:11 | 48.81943 | 11.28741 | 35796 ft | 450 kts | 354° |
| 2026-05-06 13:11 | 48.88198 | 11.28208 | 35796 ft | 450 kts | 354° |
| 2026-05-06 13:12 | 48.94459 | 11.27670 | 35796 ft | 450 kts | 354° |
| 2026-05-06 13:12 | 49.00707 | 11.27136 | 35798 ft | 450 kts | 354° |
| 2026-05-06 13:13 | 49.06961 | 11.26597 | 35798 ft | 450 kts | 354° |
| 2026-05-06 13:13 | 49.13214 | 11.26055 | 35796 ft | 450 kts | 354° |
| 2026-05-06 13:14 | 49.19465 | 11.25517 | 35794 ft | 449 kts | 354° |
| 2026-05-06 13:14 | 49.25668 | 11.24981 | 35794 ft | 449 kts | 354° |
| 2026-05-06 13:15 | 49.31917 | 11.24434 | 35793 ft | 449 kts | 354° |
| 2026-05-06 13:15 | 49.38155 | 11.23869 | 35792 ft | 449 kts | 353° |
| 2026-05-06 13:16 | 49.44367 | 11.22944 | 35798 ft | 448 kts | 351° |
| 2026-05-06 13:16 | 49.50576 | 11.21932 | 35792 ft | 449 kts | 352° |
| 2026-05-06 13:17 | 49.56795 | 11.21061 | 35791 ft | 448 kts | 352° |
| 2026-05-06 13:17 | 49.63004 | 11.20147 | 35797 ft | 448 kts | 351° |
| 2026-05-06 13:18 | 49.69205 | 11.19205 | 35798 ft | 448 kts | 352° |
| 2026-05-06 13:18 | 49.75413 | 11.18286 | 35791 ft | 448 kts | 352° |
| 2026-05-06 13:19 | 49.81626 | 11.17360 | 35797 ft | 448 kts | 352° |
| 2026-05-06 13:19 | 49.87823 | 11.16427 | 35790 ft | 448 kts | 352° |
| 2026-05-06 13:20 | 49.94037 | 11.15495 | 35795 ft | 448 kts | 352° |
| 2026-05-06 13:20 | 50.00205 | 11.14568 | 35795 ft | 448 kts | 352° |
| 2026-05-06 13:21 | 50.06414 | 11.13628 | 35796 ft | 448 kts | 352° |
| 2026-05-06 13:21 | 50.12609 | 11.12688 | 35801 ft | 447 kts | 352° |
| 2026-05-06 13:22 | 50.18798 | 11.11751 | 35801 ft | 447 kts | 352° |
| 2026-05-06 13:22 | 50.24998 | 11.10807 | 35800 ft | 447 kts | 352° |
| 2026-05-06 13:23 | 50.31190 | 11.09807 | 35800 ft | 447 kts | 349° |
| 2026-05-06 13:23 | 50.37288 | 11.08034 | 35802 ft | 445 kts | 345° |
| 2026-05-06 13:24 | 50.43363 | 11.06089 | 35811 ft | 446 kts | 347° |
| 2026-05-06 13:24 | 50.49481 | 11.04438 | 35804 ft | 446 kts | 347° |
| 2026-05-06 13:25 | 50.55552 | 11.02701 | 35805 ft | 445 kts | 347° |
| 2026-05-06 13:25 | 50.61638 | 11.00904 | 35803 ft | 445 kts | 347° |
| 2026-05-06 13:26 | 50.67761 | 10.99144 | 35376 ft | 453 kts | 347° |
| 2026-05-06 13:26 | 50.70866 | 10.98248 | 34796 ft | 454 kts | 347° |
| 2026-05-06 13:26 | 50.73976 | 10.97345 | 34235 ft | 455 kts | 347° |
| 2026-05-06 13:26 | 50.77095 | 10.96436 | 33659 ft | 455 kts | 346° |
| 2026-05-06 13:27 | 50.80217 | 10.95523 | 33097 ft | 456 kts | 347° |
| 2026-05-06 13:27 | 50.83339 | 10.94612 | 32520 ft | 456 kts | 347° |
| 2026-05-06 13:27 | 50.86464 | 10.93701 | 31945 ft | 456 kts | 347° |
| 2026-05-06 13:27 | 50.89583 | 10.92790 | 31372 ft | 456 kts | 347° |
| 2026-05-06 13:28 | 50.92702 | 10.91877 | 30800 ft | 456 kts | 347° |
| 2026-05-06 13:28 | 50.95821 | 10.90963 | 30220 ft | 455 kts | 347° |
| 2026-05-06 13:28 | 50.98933 | 10.90048 | 29647 ft | 454 kts | 347° |
| 2026-05-06 13:28 | 51.02038 | 10.89135 | 29104 ft | 453 kts | 347° |
| 2026-05-06 13:29 | 51.05134 | 10.88222 | 28578 ft | 450 kts | 347° |
| 2026-05-06 13:29 | 51.08201 | 10.87318 | 28055 ft | 448 kts | 347° |
| 2026-05-06 13:29 | 51.11267 | 10.86411 | 27532 ft | 446 kts | 347° |
| 2026-05-06 13:29 | 51.14312 | 10.85510 | 27004 ft | 444 kts | 347° |
| 2026-05-06 13:30 | 51.17342 | 10.84614 | 26487 ft | 442 kts | 348° |
| 2026-05-06 13:30 | 51.20360 | 10.83722 | 25965 ft | 440 kts | 348° |
| 2026-05-06 13:30 | 51.23364 | 10.82832 | 25441 ft | 437 kts | 348° |
| 2026-05-06 13:30 | 51.26327 | 10.81949 | 24922 ft | 443 kts | 348° |
| 2026-05-06 13:31 | 51.29431 | 10.81022 | 24396 ft | 450 kts | 348° |
| 2026-05-06 13:31 | 51.32495 | 10.80108 | 23898 ft | 448 kts | 348° |
| 2026-05-06 13:31 | 51.35541 | 10.79202 | 23434 ft | 443 kts | 348° |
| 2026-05-06 13:31 | 51.38560 | 10.78301 | 22896 ft | 439 kts | 348° |
| 2026-05-06 13:32 | 51.41542 | 10.77409 | 22380 ft | 434 kts | 348° |
| 2026-05-06 13:32 | 51.44465 | 10.76532 | 21870 ft | 431 kts | 348° |
| 2026-05-06 13:32 | 51.47402 | 10.75649 | 21357 ft | 427 kts | 348° |
| 2026-05-06 13:32 | 51.50316 | 10.74773 | 20827 ft | 424 kts | 348° |
| 2026-05-06 13:33 | 51.53210 | 10.73903 | 20311 ft | 421 kts | 348° |
| 2026-05-06 13:33 | 51.56085 | 10.73038 | 19789 ft | 418 kts | 348° |
| 2026-05-06 13:33 | 51.58939 | 10.72177 | 19272 ft | 415 kts | 348° |
| 2026-05-06 13:33 | 51.61765 | 10.71323 | 18752 ft | 413 kts | 348° |
| 2026-05-06 13:34 | 51.64585 | 10.70471 | 18234 ft | 410 kts | 348° |
| 2026-05-06 13:34 | 51.67380 | 10.69624 | 17711 ft | 407 kts | 348° |
| 2026-05-06 13:34 | 51.70159 | 10.68782 | 17185 ft | 405 kts | 348° |
| 2026-05-06 13:34 | 51.72917 | 10.67943 | 16662 ft | 402 kts | 347° |
| 2026-05-06 13:35 | 51.75624 | 10.67120 | 16142 ft | 399 kts | 348° |
| 2026-05-06 13:35 | 51.78346 | 10.66291 | 15628 ft | 396 kts | 347° |
| 2026-05-06 13:35 | 51.80964 | 10.65028 | 15097 ft | 391 kts | 336° |
| 2026-05-06 13:35 | 51.83476 | 10.63389 | 14584 ft | 387 kts | 336° |
| 2026-05-06 13:36 | 51.85964 | 10.61743 | 14060 ft | 384 kts | 336° |
| 2026-05-06 13:36 | 51.88429 | 10.60093 | 13540 ft | 381 kts | 336° |
| 2026-05-06 13:36 | 51.90869 | 10.58459 | 13012 ft | 378 kts | 336° |
| 2026-05-06 13:36 | 51.93287 | 10.56847 | 12492 ft | 375 kts | 336° |
| 2026-05-06 13:37 | 51.95691 | 10.55248 | 12025 ft | 370 kts | 336° |
| 2026-05-06 13:37 | 51.97897 | 10.53272 | 11784 ft | 356 kts | 322° |
| 2026-05-06 13:37 | 51.99654 | 10.50561 | 11530 ft | 342 kts | 307° |
| 2026-05-06 13:37 | 52.00890 | 10.47352 | 11281 ft | 330 kts | 293° |
| 2026-05-06 13:38 | 52.01638 | 10.43908 | 11034 ft | 319 kts | 286° |
| 2026-05-06 13:38 | 52.02292 | 10.40519 | 10853 ft | 309 kts | 286° |
| 2026-05-06 13:38 | 52.02913 | 10.37236 | 10822 ft | 298 kts | 285° |
| 2026-05-06 13:38 | 52.03513 | 10.34062 | 10821 ft | 289 kts | 285° |
| 2026-05-06 13:39 | 52.04100 | 10.30976 | 10818 ft | 283 kts | 285° |
| 2026-05-06 13:39 | 52.04679 | 10.27931 | 10819 ft | 282 kts | 285° |
| 2026-05-06 13:39 | 52.05261 | 10.24867 | 10816 ft | 285 kts | 285° |
| 2026-05-06 13:39 | 52.05843 | 10.21799 | 10811 ft | 284 kts | 285° |
| 2026-05-06 13:40 | 52.06438 | 10.18653 | 10330 ft | 298 kts | 285° |
| 2026-05-06 13:40 | 52.07047 | 10.15430 | 9967 ft | 297 kts | 285° |
| 2026-05-06 13:40 | 52.07648 | 10.12255 | 9617 ft | 290 kts | 285° |
| 2026-05-06 13:40 | 52.08235 | 10.09143 | 9268 ft | 286 kts | 286° |
| 2026-05-06 13:41 | 52.08814 | 10.06064 | 8918 ft | 284 kts | 286° |
| 2026-05-06 13:41 | 52.09388 | 10.03000 | 8559 ft | 282 kts | 286° |
| 2026-05-06 13:41 | 52.09957 | 9.99964 | 8218 ft | 280 kts | 286° |
| 2026-05-06 13:41 | 52.10522 | 9.96947 | 7919 ft | 276 kts | 286° |
| 2026-05-06 13:42 | 52.11077 | 9.93975 | 7665 ft | 274 kts | 286° |
| 2026-05-06 13:42 | 52.11630 | 9.91013 | 7409 ft | 273 kts | 286° |
| 2026-05-06 13:42 | 52.12181 | 9.88055 | 7161 ft | 273 kts | 285° |
| 2026-05-06 13:42 | 52.12728 | 9.85115 | 6880 ft | 269 kts | 286° |
| 2026-05-06 13:43 | 52.13269 | 9.82193 | 6631 ft | 271 kts | 286° |
| 2026-05-06 13:43 | 52.13812 | 9.79263 | 6384 ft | 269 kts | 286° |
| 2026-05-06 13:43 | 52.14353 | 9.76339 | 6130 ft | 269 kts | 286° |
| 2026-05-06 13:43 | 52.14895 | 9.73415 | 5884 ft | 269 kts | 286° |
| 2026-05-06 13:44 | 52.15433 | 9.70499 | 5636 ft | 268 kts | 286° |
| 2026-05-06 13:44 | 52.15967 | 9.67599 | 5384 ft | 266 kts | 286° |
| 2026-05-06 13:44 | 52.16496 | 9.64711 | 5135 ft | 266 kts | 286° |
| 2026-05-06 13:44 | 52.17024 | 9.61836 | 4884 ft | 265 kts | 286° |
| 2026-05-06 13:45 | 52.17551 | 9.58963 | 4637 ft | 264 kts | 287° |
| 2026-05-06 13:45 | 52.18591 | 9.53293 | 4150 ft | 262 kts | 287° |
| 2026-05-06 13:45 | 52.19111 | 9.50438 | 4024 ft | 261 kts | 287° |
| 2026-05-06 13:46 | 52.19619 | 9.47640 | 4007 ft | 252 kts | 287° |
| 2026-05-06 13:46 | 52.20108 | 9.44952 | 3992 ft | 245 kts | 287° |
| 2026-05-06 13:46 | 52.20609 | 9.42321 | 4001 ft | 240 kts | 294° |
| 2026-05-06 13:46 | 52.21605 | 9.40216 | 4008 ft | 236 kts | 325° |
| 2026-05-06 13:47 | 52.23058 | 9.39015 | 4021 ft | 235 kts | 337° |
| 2026-05-06 13:47 | 52.24059 | 9.38328 | 4017 ft | 235 kts | 339° |
| 2026-05-06 13:47 | 52.25573 | 9.37350 | 4000 ft | 234 kts | 340° |
| 2026-05-06 13:47 | 52.27091 | 9.36385 | 4003 ft | 233 kts | 340° |
| 2026-05-06 13:48 | 52.28602 | 9.35414 | 4007 ft | 234 kts | 339° |
| 2026-05-06 13:48 | 52.30115 | 9.34428 | 4016 ft | 234 kts | 339° |
| 2026-05-06 13:48 | 52.31628 | 9.33435 | 4004 ft | 233 kts | 339° |
| 2026-05-06 13:48 | 52.33149 | 9.32520 | 4000 ft | 233 kts | 348° |
| 2026-05-06 13:49 | 52.34756 | 9.32237 | 4010 ft | 231 kts | 3° |
| 2026-05-06 13:49 | 52.36347 | 9.32335 | 4000 ft | 227 kts | 4° |
| 2026-05-06 13:49 | 52.37912 | 9.32440 | 4019 ft | 222 kts | 3° |
| 2026-05-06 13:49 | 52.39406 | 9.32542 | 4016 ft | 208 kts | 3° |
| 2026-05-06 13:50 | 52.40842 | 9.32637 | 3999 ft | 206 kts | 3° |
| 2026-05-06 13:50 | 52.42262 | 9.32720 | 4006 ft | 202 kts | 3° |
| 2026-05-06 13:50 | 52.43663 | 9.32870 | 4002 ft | 202 kts | 14° |
| 2026-05-06 13:50 | 52.44920 | 9.33784 | 4004 ft | 199 kts | 37° |
| 2026-05-06 13:51 | 52.45849 | 9.35445 | 3950 ft | 200 kts | 60° |
| 2026-05-06 13:51 | 52.46265 | 9.37596 | 3746 ft | 198 kts | 86° |
| 2026-05-06 13:51 | 52.46234 | 9.39849 | 3480 ft | 197 kts | 91° |
| 2026-05-06 13:51 | 52.46173 | 9.42022 | 3223 ft | 187 kts | 92° |
| 2026-05-06 13:52 | 52.46117 | 9.44137 | 2979 ft | 184 kts | 91° |
| 2026-05-06 13:52 | 52.46063 | 9.46220 | 2734 ft | 182 kts | 91° |
| 2026-05-06 13:52 | 52.46010 | 9.48293 | 2495 ft | 181 kts | 91° |
| 2026-05-06 13:52 | 52.45959 | 9.50298 | 2266 ft | 178 kts | 91° |
| 2026-05-06 13:53 | 52.45906 | 9.52335 | 2037 ft | 172 kts | 91° |
| 2026-05-06 13:53 | 52.45858 | 9.54161 | 1814 ft | 155 kts | 91° |
| 2026-05-06 13:53 | 52.45813 | 9.55887 | 1624 ft | 147 kts | 91° |
| 2026-05-06 13:53 | 52.45769 | 9.57559 | 1420 ft | 146 kts | 91° |
| 2026-05-06 13:54 | 52.45726 | 9.59192 | 1226 ft | 142 kts | 91° |
| 2026-05-06 13:54 | 52.45681 | 9.60811 | 1034 ft | 141 kts | 91° |
| 2026-05-06 13:54 | 52.45638 | 9.62403 | 843 ft | 140 kts | 92° |
| 2026-05-06 13:54 | 52.45594 | 9.64000 | 661 ft | 141 kts | 91° |
| 2026-05-06 13:55 | 52.45553 | 9.65588 | 470 ft | 139 kts | 91° |
| 2026-05-06 13:55 | 52.45511 | 9.67170 | 293 ft | 139 kts | 92° |
| 2026-05-06 13:55 | 52.45470 | 9.68686 | 183 ft | 106 kts | 92° |
| 2026-05-06 13:55 | 52.45453 | 9.69353 | 192 ft | 19 kts | 92° |
| 2026-05-06 13:56 | 52.45444 | 9.69673 | 190 ft | 40 kts | 92° |
| 2026-05-06 13:56 | 52.45429 | 9.70221 | 194 ft | 49 kts | 92° |
| 2026-05-06 13:56 | 52.45418 | 9.70570 | 199 ft | 11 kts | 92° |
| 2026-05-06 13:56 | 52.45422 | 9.70622 | 193 ft | 0 kts | 65° |
| 2026-05-06 13:57 | 52.45444 | 9.70653 | 189 ft | 8 kts | 29° |
| 2026-05-06 13:57 | 52.45511 | 9.70670 | 192 ft | 11 kts | 4° |
| 2026-05-06 13:57 | 52.45560 | 9.70672 | 197 ft | 3 kts | 360° |
| 2026-05-06 13:57 | 52.45611 | 9.70670 | 196 ft | 11 kts | 353° |
| 2026-05-06 13:58 | 52.45648 | 9.70603 | 190 ft | 9 kts | 283° |
| 2026-05-06 13:58 | 52.45654 | 9.70513 | 190 ft | 6 kts | 275° |
| 2026-05-06 13:58 | 52.45655 | 9.70492 | 190 ft | 0 kts | 275° |
| 2026-05-06 13:58 | 52.45658 | 9.70418 | 201 ft | 17 kts | 274° |
| 2026-05-06 13:59 | 52.45662 | 9.70153 | 199 ft | 23 kts | 271° |
| 2026-05-06 13:59 | 52.45664 | 9.70052 | 202 ft | 4 kts | 271° |
| 2026-05-06 13:59 | 52.45668 | 9.69982 | 197 ft | 2 kts | 283° |
| 2026-05-06 13:59 | 52.45681 | 9.69945 | 194 ft | 6 kts | 314° |
| 2026-05-06 14:00 | 52.45698 | 9.69934 | 193 ft | 5 kts | 351° |
| 2026-05-06 14:00 | 52.45723 | 9.69947 | 198 ft | 6 kts | 29° |
| 2026-05-06 14:00 | 52.45739 | 9.69965 | 195 ft | 2 kts | 32° |
| 2026-05-06 14:00 | 52.45744 | 9.69969 | 190 ft | 0 kts | 31° |